Time;durP1;ratioP1;P1;durP2;ratioP2;P2;SDS_P1;SDS_P2;PMS_P1;PMS_P2;Temp;Humidity;BMP_temperature;BMP_pressure;BME280_temperature;BME280_humidity;BME280_pressure;Samples;Min_cycle;Max_cycle;Signal;HPM_P1;HPM_P2
2022/08/28 00:01:39;;;;;;;13.00;8.53;;;;;;;;;;5051026;28;20541;-66
2022/08/28 00:04:06;;;;;;;9.43;7.40;;;;;;;;;;5037143;28;20588;-66
2022/08/28 00:06:34;;;;;;;9.67;7.97;;;;;;;;;;5050672;28;20942;-66
2022/08/28 00:09:02;;;;;;;13.93;8.87;;;;;;;;;;5036791;28;20486;-66
2022/08/28 00:11:29;;;;;;;10.70;7.53;;;;;;;;;;5050685;28;20447;-66
2022/08/28 00:13:57;;;;;;;10.00;7.87;;;;;;;;;;5049683;28;20965;-66
2022/08/28 00:16:24;;;;;;;12.00;8.50;;;;;;;;;;5050734;28;20447;-67
2022/08/28 00:18:51;;;;;;;11.80;9.00;;;;;;;;;;5050293;28;20446;-66
2022/08/28 00:21:18;;;;;;;11.57;8.53;;;;;;;;;;5050767;28;20455;-66
2022/08/28 00:23:45;;;;;;;13.57;9.73;;;;;;;;;;5050542;28;20458;-66
2022/08/28 00:27:51;;;;;;;11.57;8.67;;;;;;;;;;5050848;28;20452;-67
2022/08/28 00:29:00;;;;;;;9.97;8.03;;;;;;;;;;5049583;28;20518;-66
2022/08/28 00:31:27;;;;;;;12.23;8.67;;;;;;;;;;5050301;28;20538;-67
2022/08/28 00:33:55;;;;;;;10.60;8.40;;;;;;;;;;5049692;28;20454;-66
2022/08/28 00:36:22;;;;;;;10.50;8.03;;;;;;;;;;5050357;28;20817;-67
2022/08/28 00:38:50;;;;;;;9.53;7.60;;;;;;;;;;5049991;28;20856;-66
2022/08/28 00:41:19;;;;;;;11.70;8.53;;;;;;;;;;5050058;28;20542;-67
2022/08/28 00:43:48;;;;;;;10.37;8.87;;;;;;;;;;5050096;28;20458;-67
2022/08/28 00:46:16;;;;;;;9.23;7.77;;;;;;;;;;5037203;28;20455;-67
2022/08/28 00:48:43;;;;;;;10.73;8.33;;;;;;;;;;5049120;28;20821;-66
2022/08/28 00:53:58;;;;;;;11.90;9.10;;;;;;;;;;5049054;28;20781;-66
2022/08/28 00:56:27;;;;;;;9.73;7.60;;;;;;;;;;5050175;28;20812;-67
2022/08/28 00:58:55;;;;;;;10.27;8.60;;;;;;;;;;5049465;28;20456;-66
2022/08/28 01:01:22;;;;;;;12.03;8.27;;;;;;;;;;5050032;28;20451;-66
2022/08/28 01:03:49;;;;;;;15.07;8.83;;;;;;;;;;5048844;28;20450;-65
2022/08/28 01:06:19;;;;;;;8.83;7.30;;;;;;;;;;5050295;28;20453;-66
2022/08/28 01:08:47;;;;;;;9.83;8.00;;;;;;;;;;5050559;28;20506;-66
2022/08/28 01:11:15;;;;;;;10.77;8.37;;;;;;;;;;5050148;28;20454;-66
2022/08/28 01:13:47;;;;;;;10.57;8.17;;;;;;;;;;5049663;28;20569;-67
2022/08/28 01:16:15;;;;;;;9.80;7.90;;;;;;;;;;5056889;28;20780;-66
2022/08/28 01:18:42;;;;;;;12.60;8.10;;;;;;;;;;5049831;28;20450;-66
2022/08/28 01:21:13;;;;;;;10.33;6.67;;;;;;;;;;5049606;28;20805;-66
2022/08/28 01:23:50;;;;;;;9.77;7.50;;;;;;;;;;5049606;28;20439;-66
2022/08/28 01:26:18;;;;;;;10.60;8.10;;;;;;;;;;5049582;28;20453;-66
2022/08/28 01:28:46;;;;;;;11.87;7.97;;;;;;;;;;5050061;28;20494;-66
2022/08/28 01:31:14;;;;;;;8.73;6.97;;;;;;;;;;5050126;28;20458;-66
2022/08/28 01:33:42;;;;;;;10.83;8.40;;;;;;;;;;5049261;28;20455;-66
2022/08/28 01:36:11;;;;;;;8.23;6.73;;;;;;;;;;5049476;28;20879;-66
2022/08/28 01:38:38;;;;;;;9.20;6.73;;;;;;;;;;5050010;28;20463;-66
2022/08/28 01:41:06;;;;;;;9.93;7.27;;;;;;;;;;5049266;28;20447;-66
2022/08/28 01:43:34;;;;;;;15.70;8.33;;;;;;;;;;5049128;28;21032;-67
2022/08/28 01:46:03;;;;;;;12.57;8.00;;;;;;;;;;5048987;28;20462;-66
2022/08/28 01:48:31;;;;;;;9.10;7.00;;;;;;;;;;5049912;28;20490;-66
2022/08/28 01:50:58;;;;;;;12.13;8.47;;;;;;;;;;5048887;28;20451;-66
2022/08/28 01:53:26;;;;;;;12.40;8.20;;;;;;;;;;5049163;28;20454;-66
2022/08/28 01:55:54;;;;;;;11.50;8.33;;;;;;;;;;5048826;28;20447;-67
2022/08/28 01:58:24;;;;;;;13.70;8.53;;;;;;;;;;5049420;28;20450;-66
2022/08/28 02:00:52;;;;;;;10.60;8.20;;;;;;;;;;5051657;28;20457;-66
2022/08/28 02:03:20;;;;;;;11.40;8.53;;;;;;;;;;5052922;28;20508;-66
2022/08/28 02:05:47;;;;;;;10.80;8.00;;;;;;;;;;5053395;28;20463;-65
2022/08/28 02:08:14;;;;;;;11.20;7.57;;;;;;;;;;5052982;28;21017;-66
2022/08/28 02:10:43;;;;;;;11.40;8.13;;;;;;;;;;5053101;28;20450;-66
2022/08/28 02:13:11;;;;;;;10.50;7.90;;;;;;;;;;5052143;28;20450;-66
2022/08/28 02:15:40;;;;;;;8.37;6.70;;;;;;;;;;5053175;28;20512;-66
2022/08/28 02:18:07;;;;;;;9.40;6.90;;;;;;;;;;5052519;28;20796;-66
2022/08/28 02:20:35;;;;;;;9.90;8.07;;;;;;;;;;5053181;28;20450;-66
2022/08/28 02:23:02;;;;;;;8.60;7.70;;;;;;;;;;5052179;28;20565;-66
2022/08/28 02:25:30;;;;;;;8.57;7.27;;;;;;;;;;5052932;28;20538;-66
2022/08/28 02:27:57;;;;;;;12.27;7.30;;;;;;;;;;5051952;28;20488;-66
2022/08/28 02:30:24;;;;;;;9.60;7.20;;;;;;;;;;5052872;28;20449;-66
2022/08/28 02:32:53;;;;;;;9.33;7.63;;;;;;;;;;5051579;28;20451;-65
2022/08/28 02:35:22;;;;;;;10.47;7.70;;;;;;;;;;5052866;28;20458;-66
2022/08/28 02:37:49;;;;;;;9.90;7.97;;;;;;;;;;5052108;28;20447;-66
2022/08/28 02:40:17;;;;;;;8.23;6.93;;;;;;;;;;5052590;28;20453;-66
2022/08/28 02:42:45;;;;;;;8.90;7.30;;;;;;;;;;5052292;28;20458;-66
2022/08/28 02:45:13;;;;;;;8.10;7.10;;;;;;;;;;5052375;28;20461;-66
2022/08/28 02:47:41;;;;;;;9.23;8.00;;;;;;;;;;5052383;28;20465;-66
2022/08/28 02:50:11;;;;;;;8.83;7.07;;;;;;;;;;5051778;28;20446;-67
2022/08/28 02:52:39;;;;;;;8.10;6.47;;;;;;;;;;5052099;28;20467;-67
2022/08/28 02:55:07;;;;;;;10.40;7.63;;;;;;;;;;5051943;28;20450;-66
2022/08/28 02:57:34;;;;;;;9.37;6.97;;;;;;;;;;5052169;28;20519;-66
2022/08/28 03:00:02;;;;;;;9.40;7.20;;;;;;;;;;5051587;28;20963;-66
2022/08/28 03:02:29;;;;;;;8.60;7.57;;;;;;;;;;5051662;28;20489;-66
2022/08/28 03:04:56;;;;;;;12.00;7.80;;;;;;;;;;5051642;28;20454;-65
2022/08/28 03:07:24;;;;;;;7.70;6.50;;;;;;;;;;5052337;28;20447;-66
2022/08/28 03:09:52;;;;;;;9.70;7.57;;;;;;;;;;5051431;28;20486;-66
2022/08/28 03:12:22;;;;;;;11.27;8.50;;;;;;;;;;5050298;28;20512;-66
2022/08/28 03:14:50;;;;;;;8.47;6.30;;;;;;;;;;5051285;28;20474;-65
2022/08/28 03:17:17;;;;;;;9.40;7.40;;;;;;;;;;5058686;28;20451;-66
2022/08/28 03:19:44;;;;;;;8.30;6.80;;;;;;;;;;5052019;28;20454;-66
2022/08/28 03:22:11;;;;;;;10.13;7.20;;;;;;;;;;5050970;28;20458;-66
2022/08/28 03:24:39;;;;;;;9.80;7.53;;;;;;;;;;5051783;28;20480;-66
2022/08/28 03:27:06;;;;;;;10.67;8.47;;;;;;;;;;5051190;28;20450;-66
2022/08/28 03:29:33;;;;;;;8.87;7.00;;;;;;;;;;5051658;28;20514;-66
2022/08/28 03:32:00;;;;;;;8.13;6.60;;;;;;;;;;5050528;28;20864;-66
2022/08/28 03:34:28;;;;;;;10.83;7.50;;;;;;;;;;5051604;28;20541;-66
2022/08/28 03:36:55;;;;;;;10.63;7.23;;;;;;;;;;5050783;28;20552;-66
2022/08/28 03:39:22;;;;;;;9.87;7.90;;;;;;;;;;5051533;28;20474;-66
2022/08/28 03:41:51;;;;;;;11.27;7.90;;;;;;;;;;5050797;28;20450;-65
2022/08/28 03:44:18;;;;;;;10.10;7.63;;;;;;;;;;5051406;28;20459;-66
2022/08/28 03:46:45;;;;;;;10.27;8.00;;;;;;;;;;5051980;28;20542;-66
2022/08/28 03:49:13;;;;;;;10.63;7.47;;;;;;;;;;5051123;28;20482;-66
2022/08/28 03:51:41;;;;;;;11.00;8.07;;;;;;;;;;5051105;28;20454;-66
2022/08/28 03:54:08;;;;;;;9.93;7.67;;;;;;;;;;5050365;28;20966;-66
2022/08/28 03:56:35;;;;;;;12.53;8.50;;;;;;;;;;5051200;28;20446;-66
2022/08/28 03:59:05;;;;;;;9.70;8.03;;;;;;;;;;5050136;28;20946;-66
2022/08/28 04:01:33;;;;;;;8.77;6.77;;;;;;;;;;5050824;28;20447;-66
2022/08/28 04:04:00;;;;;;;9.37;6.97;;;;;;;;;;5050250;28;20454;-66
2022/08/28 04:06:28;;;;;;;11.97;8.07;;;;;;;;;;5050783;28;20451;-66
2022/08/28 04:08:56;;;;;;;11.07;7.67;;;;;;;;;;5049978;28;20597;-66
2022/08/28 04:11:23;;;;;;;12.23;8.80;;;;;;;;;;5050160;28;20447;-66
2022/08/28 04:13:50;;;;;;;10.10;7.43;;;;;;;;;;5050037;28;20488;-66
2022/08/28 04:16:19;;;;;;;11.20;7.87;;;;;;;;;;5050534;28;20936;-66
2022/08/28 04:18:47;;;;;;;15.47;8.63;;;;;;;;;;5038045;28;20480;-66
2022/08/28 04:21:16;;;;;;;12.27;9.13;;;;;;;;;;5050429;28;20462;-66
2022/08/28 04:23:44;;;;;;;12.10;8.40;;;;;;;;;;5050710;28;20446;-66
2022/08/28 04:26:12;;;;;;;13.20;8.90;;;;;;;;;;5049633;28;20544;-66
2022/08/28 04:28:39;;;;;;;13.03;8.93;;;;;;;;;;5050657;28;20489;-66
2022/08/28 04:31:07;;;;;;;12.93;9.07;;;;;;;;;;5050086;28;20446;-66
2022/08/28 04:33:37;;;;;;;10.83;8.30;;;;;;;;;;5050301;28;20450;-66
2022/08/28 04:36:05;;;;;;;11.23;8.27;;;;;;;;;;5050080;28;20450;-66
2022/08/28 04:38:32;;;;;;;13.20;8.70;;;;;;;;;;5050603;28;20464;-66
2022/08/28 04:41:00;;;;;;;11.17;7.97;;;;;;;;;;5049489;28;20458;-65
2022/08/28 04:43:27;;;;;;;12.60;9.30;;;;;;;;;;5050071;28;20461;-66
2022/08/28 04:45:55;;;;;;;14.20;9.00;;;;;;;;;;5050405;28;20811;-66
2022/08/28 04:48:22;;;;;;;13.87;8.80;;;;;;;;;;5050469;28;20481;-66
2022/08/28 04:50:51;;;;;;;10.17;7.57;;;;;;;;;;5049545;28;20446;-66
2022/08/28 04:53:19;;;;;;;13.20;7.90;;;;;;;;;;5050027;28;20449;-66
2022/08/28 04:55:47;;;;;;;10.63;8.30;;;;;;;;;;5050137;28;20450;-66
2022/08/28 04:58:15;;;;;;;10.90;8.37;;;;;;;;;;5050309;28;20557;-66
2022/08/28 05:00:43;;;;;;;10.83;7.60;;;;;;;;;;5050594;28;20482;-67
2022/08/28 05:03:11;;;;;;;11.40;7.80;;;;;;;;;;5049416;28;20577;-67
2022/08/28 05:05:41;;;;;;;11.90;8.63;;;;;;;;;;5050034;28;20770;-67
2022/08/28 05:08:09;;;;;;;11.60;9.30;;;;;;;;;;5049839;28;20447;-67
2022/08/28 05:10:37;;;;;;;10.93;8.17;;;;;;;;;;5049786;28;20482;-67
2022/08/28 05:13:04;;;;;;;10.03;6.43;;;;;;;;;;5048927;28;20586;-66
2022/08/28 05:15:32;;;;;;;10.10;7.87;;;;;;;;;;5050046;28;20485;-67
2022/08/28 05:17:59;;;;;;;8.70;7.47;;;;;;;;;;5049532;28;20481;-66
2022/08/28 05:20:26;;;;;;;10.83;8.13;;;;;;;;;;5049345;28;20537;-66
2022/08/28 05:22:53;;;;;;;10.23;9.13;;;;;;;;;;5049146;28;20476;-66
2022/08/28 05:25:22;;;;;;;11.83;8.47;;;;;;;;;;5040708;28;20447;-66
2022/08/28 05:27:49;;;;;;;10.80;7.37;;;;;;;;;;5049360;28;20450;-66
2022/08/28 05:30:16;;;;;;;11.30;7.80;;;;;;;;;;5050075;28;20482;-67
2022/08/28 05:32:43;;;;;;;8.70;7.40;;;;;;;;;;5049476;28;20442;-67
2022/08/28 05:35:11;;;;;;;11.13;8.50;;;;;;;;;;5051366;28;20454;-66
2022/08/28 05:37:38;;;;;;;11.07;7.67;;;;;;;;;;5053721;28;20446;-66
2022/08/28 05:40:06;;;;;;;9.77;7.77;;;;;;;;;;5053255;28;20538;-67
2022/08/28 05:42:34;;;;;;;9.67;7.00;;;;;;;;;;5052778;28;20443;-66
2022/08/28 05:45:01;;;;;;;12.30;8.63;;;;;;;;;;5052970;28;20450;-66
2022/08/28 05:47:31;;;;;;;11.37;8.13;;;;;;;;;;5053228;28;20446;-66
2022/08/28 05:49:58;;;;;;;14.63;8.57;;;;;;;;;;5052211;28;20565;-66
2022/08/28 05:52:27;;;;;;;10.23;7.30;;;;;;;;;;5052622;28;20968;-65
2022/08/28 05:54:54;;;;;;;9.57;7.50;;;;;;;;;;5053016;28;20458;-66
2022/08/28 05:57:21;;;;;;;8.03;6.70;;;;;;;;;;5053291;28;20458;-66
2022/08/28 05:59:50;;;;;;;12.43;8.03;;;;;;;;;;5052725;28;20442;-66
2022/08/28 06:02:17;;;;;;;9.83;7.47;;;;;;;;;;5052415;28;20453;-66
2022/08/28 06:04:46;;;;;;;9.23;7.57;;;;;;;;;;5053364;28;20549;-66
2022/08/28 06:07:14;;;;;;;10.30;7.50;;;;;;;;;;5052763;28;20451;-66
2022/08/28 06:09:42;;;;;;;14.10;7.13;;;;;;;;;;5052831;28;20512;-66
2022/08/28 06:12:10;;;;;;;9.13;6.73;;;;;;;;;;5051178;28;20450;-66
2022/08/28 06:14:37;;;;;;;11.60;7.97;;;;;;;;;;5052133;28;20561;-66
2022/08/28 06:17:05;;;;;;;9.30;6.70;;;;;;;;;;5052393;28;20537;-66
2022/08/28 06:19:34;;;;;;;10.10;8.23;;;;;;;;;;5052930;28;20460;-68
2022/08/28 06:22:02;;;;;;;8.30;6.97;;;;;;;;;;5051824;28;20450;-67
2022/08/28 06:24:29;;;;;;;9.00;7.30;;;;;;;;;;5052709;28;20457;-67
2022/08/28 06:26:56;;;;;;;11.23;8.30;;;;;;;;;;5051786;28;20442;-69
2022/08/28 06:29:24;;;;;;;9.20;7.83;;;;;;;;;;5052389;28;20969;-68
2022/08/28 06:31:54;;;;;;;9.47;6.83;;;;;;;;;;5051891;28;20475;-68
2022/08/28 06:34:23;;;;;;;8.07;6.27;;;;;;;;;;5052651;28;20453;-67
2022/08/28 06:36:50;;;;;;;9.70;6.83;;;;;;;;;;5052368;28;20450;-67
2022/08/28 06:39:17;;;;;;;11.83;7.70;;;;;;;;;;5052299;28;20554;-68
2022/08/28 06:41:44;;;;;;;7.70;6.60;;;;;;;;;;5052113;28;20454;-71
2022/08/28 06:44:13;;;;;;;8.27;6.87;;;;;;;;;;5050668;28;20460;-67
2022/08/28 06:46:40;;;;;;;6.77;5.43;;;;;;;;;;5052520;28;20450;-68
2022/08/28 06:49:08;;;;;;;7.60;6.67;;;;;;;;;;5051608;28;20992;-68
2022/08/28 06:51:36;;;;;;;9.03;5.97;;;;;;;;;;5052213;28;20456;-68
2022/08/28 06:54:04;;;;;;;6.57;5.87;;;;;;;;;;5051987;28;20522;-67
2022/08/28 06:56:31;;;;;;;7.20;6.37;;;;;;;;;;5052678;28;20541;-68
2022/08/28 06:58:59;;;;;;;9.43;6.23;;;;;;;;;;5051853;28;20447;-68
2022/08/28 07:01:27;;;;;;;7.80;6.33;;;;;;;;;;5051135;28;20529;-69
2022/08/28 07:03:57;;;;;;;7.70;6.07;;;;;;;;;;5050626;28;21029;-69
2022/08/28 07:06:25;;;;;;;6.93;6.20;;;;;;;;;;5051810;28;20965;-69
2022/08/28 07:08:53;;;;;;;9.97;7.57;;;;;;;;;;5044894;28;20459;-69
2022/08/28 07:11:21;;;;;;;7.63;6.20;;;;;;;;;;5048335;28;20488;-69
2022/08/28 07:13:49;;;;;;;6.33;5.60;;;;;;;;;;5047835;28;20507;-69
2022/08/28 07:16:18;;;;;;;6.63;5.77;;;;;;;;;;5049521;28;20474;-69
2022/08/28 07:18:46;;;;;;;8.27;5.50;;;;;;;;;;5048827;28;20533;-69
2022/08/28 07:21:13;;;;;;;7.70;6.17;;;;;;;;;;5049209;28;20486;-70
2022/08/28 07:23:41;;;;;;;9.37;6.40;;;;;;;;;;5048946;28;20470;-70
2022/08/28 07:26:11;;;;;;;8.67;6.43;;;;;;;;;;5048255;28;20461;-68
2022/08/28 07:28:39;;;;;;;6.47;5.67;;;;;;;;;;5047849;28;20984;-69
2022/08/28 07:31:08;;;;;;;8.60;6.13;;;;;;;;;;5048313;28;20478;-69
2022/08/28 07:33:36;;;;;;;7.57;5.30;;;;;;;;;;5049134;28;20886;-69
2022/08/28 07:36:05;;;;;;;8.83;7.93;;;;;;;;;;5047458;28;21015;-68
2022/08/28 07:38:33;;;;;;;7.93;6.27;;;;;;;;;;5050596;28;20441;-68
2022/08/28 07:41:00;;;;;;;7.60;6.20;;;;;;;;;;5049474;28;20454;-69
2022/08/28 07:46:13;;;;;;;8.17;5.80;;;;;;;;;;5050559;28;20540;-69
2022/08/28 07:48:41;;;;;;;7.30;6.60;;;;;;;;;;5050278;28;20457;-68
2022/08/28 07:51:09;;;;;;;9.00;6.63;;;;;;;;;;5049570;28;20485;-69
2022/08/28 07:53:36;;;;;;;6.53;5.87;;;;;;;;;;5050561;28;20461;-70
2022/08/28 07:56:03;;;;;;;7.67;6.30;;;;;;;;;;5049914;28;20808;-69
2022/08/28 07:58:32;;;;;;;9.83;7.33;;;;;;;;;;5048957;28;20443;-69
2022/08/28 08:01:00;;;;;;;7.50;5.70;;;;;;;;;;5049488;28;20454;-68
2022/08/28 08:03:29;;;;;;;7.27;6.57;;;;;;;;;;5045782;28;20545;-69
2022/08/28 08:05:57;;;;;;;7.43;5.50;;;;;;;;;;5046125;28;20975;-69
2022/08/28 08:08:24;;;;;;;8.10;6.53;;;;;;;;;;5046961;28;20465;-68
2022/08/28 08:10:59;;;;;;;6.07;5.30;;;;;;;;;;5046797;28;20581;-68
2022/08/28 08:13:26;;;;;;;7.80;6.20;;;;;;;;;;5045740;28;20458;-69
2022/08/28 08:15:54;;;;;;;6.87;5.73;;;;;;;;;;5045741;28;20450;-71
2022/08/28 08:18:22;;;;;;;8.03;6.13;;;;;;;;;;5046171;28;20455;-69
2022/08/28 08:20:49;;;;;;;9.17;6.40;;;;;;;;;;5045223;28;20972;-69
2022/08/28 08:23:16;;;;;;;10.17;6.70;;;;;;;;;;5046265;28;20949;-68
2022/08/28 08:25:53;;;;;;;8.50;5.57;;;;;;;;;;5047758;28;20451;-69
2022/08/28 08:28:20;;;;;;;7.10;6.40;;;;;;;;;;5047027;28;20438;-68
2022/08/28 08:30:48;;;;;;;7.13;6.43;;;;;;;;;;5046262;28;20482;-66
2022/08/28 08:33:16;;;;;;;8.60;5.57;;;;;;;;;;5048247;28;20551;-69
2022/08/28 08:35:43;;;;;;;7.33;6.50;;;;;;;;;;5042480;28;20543;-68
2022/08/28 08:38:11;;;;;;;8.70;6.40;;;;;;;;;;5041325;28;20459;-68
2022/08/28 08:40:38;;;;;;;6.57;5.37;;;;;;;;;;5046471;28;20462;-73
2022/08/28 08:43:06;;;;;;;8.70;6.70;;;;;;;;;;5046597;28;20940;-69
2022/08/28 08:45:33;;;;;;;6.77;5.40;;;;;;;;;;5046261;28;20447;-67
2022/08/28 08:48:01;;;;;;;8.10;5.40;;;;;;;;;;5045044;28;20450;-67
2022/08/28 08:50:30;;;;;;;9.43;6.43;;;;;;;;;;5047300;28;20574;-68
2022/08/28 08:53:08;;;;;;;7.63;6.83;;;;;;;;;;5045737;28;20943;-68
2022/08/28 08:55:36;;;;;;;7.00;6.30;;;;;;;;;;5046796;28;20836;-68
2022/08/28 08:58:05;;;;;;;6.20;5.60;;;;;;;;;;5046342;28;20541;-68
2022/08/28 09:00:34;;;;;;;7.80;6.10;;;;;;;;;;5047218;28;20443;-68
2022/08/28 09:03:06;;;;;;;6.50;5.63;;;;;;;;;;5046593;28;20537;-68
2022/08/28 09:05:40;;;;;;;6.83;5.90;;;;;;;;;;5044887;28;20493;-68
2022/08/28 09:08:13;;;;;;;6.10;5.20;;;;;;;;;;5042383;28;20564;-68
2022/08/28 09:10:43;;;;;;;9.43;6.03;;;;;;;;;;5048027;28;20562;-68
2022/08/28 09:13:15;;;;;;;7.93;5.47;;;;;;;;;;5049062;28;20463;-68
2022/08/28 09:15:44;;;;;;;7.50;6.80;;;;;;;;;;5049559;28;20455;-70
2022/08/28 09:18:13;;;;;;;6.20;5.60;;;;;;;;;;5043849;28;20810;-68
2022/08/28 09:20:42;;;;;;;7.50;6.67;;;;;;;;;;5048719;28;20773;-69
2022/08/28 09:23:09;;;;;;;6.57;5.00;;;;;;;;;;5050261;28;20550;-68
2022/08/28 09:25:53;;;;;;;6.50;5.70;;;;;;;;;;5050904;28;20451;-67
2022/08/28 09:28:23;;;;;;;5.80;4.73;;;;;;;;;;5049992;28;20461;-68
2022/08/28 09:30:59;;;;;;;6.20;5.40;;;;;;;;;;5049991;28;20540;-68
2022/08/28 09:33:34;;;;;;;6.20;5.20;;;;;;;;;;5051054;28;20442;-67
2022/08/28 09:36:16;;;;;;;9.10;5.80;;;;;;;;;;5050011;28;20438;-68
2022/08/28 09:38:45;;;;;;;6.30;4.70;;;;;;;;;;5049445;28;20461;-68
2022/08/28 09:43:57;;;;;;;5.53;5.03;;;;;;;;;;5049016;28;20491;-68
2022/08/28 09:46:28;;;;;;;6.20;5.60;;;;;;;;;;5050816;28;20917;-68
2022/08/28 09:49:08;;;;;;;5.83;5.20;;;;;;;;;;5045384;28;20983;-68
2022/08/28 09:51:37;;;;;;;10.37;5.40;;;;;;;;;;5050199;28;20481;-68
2022/08/28 09:54:10;;;;;;;4.90;4.40;;;;;;;;;;5046734;28;20533;-67
2022/08/28 09:56:39;;;;;;;5.53;5.03;;;;;;;;;;5050192;28;20449;-67
2022/08/28 09:59:06;;;;;;;5.93;5.30;;;;;;;;;;5043610;28;20439;-68
2022/08/28 10:01:40;;;;;;;5.50;4.90;;;;;;;;;;5047580;28;20534;-69
2022/08/28 10:04:13;;;;;;;5.73;5.00;;;;;;;;;;5044622;28;20833;-65
2022/08/28 10:06:41;;;;;;;4.87;4.43;;;;;;;;;;5049580;28;20523;-67
2022/08/28 10:09:15;;;;;;;5.43;4.93;;;;;;;;;;5048688;28;20461;-66
2022/08/28 10:11:47;;;;;;;5.77;5.17;;;;;;;;;;5049661;28;21019;-66
2022/08/28 10:14:22;;;;;;;5.87;5.27;;;;;;;;;;5048269;28;20494;-66
2022/08/28 10:16:53;;;;;;;6.50;5.80;;;;;;;;;;5045832;28;20450;-65
2022/08/28 10:19:26;;;;;;;6.40;5.10;;;;;;;;;;5048645;28;20455;-66
2022/08/28 10:22:01;;;;;;;5.60;4.93;;;;;;;;;;5046522;28;20512;-65
2022/08/28 10:24:40;;;;;;;5.40;4.90;;;;;;;;;;5045721;28;20922;-66
2022/08/28 10:27:10;;;;;;;5.00;4.53;;;;;;;;;;5048756;28;20679;-66
2022/08/28 10:29:47;;;;;;;7.10;4.97;;;;;;;;;;5049202;28;20450;-66
2022/08/28 10:32:21;;;;;;;5.80;4.93;;;;;;;;;;5049632;28;20474;-66
2022/08/28 10:34:55;;;;;;;6.10;4.60;;;;;;;;;;5049308;28;20448;-65
2022/08/28 10:37:30;;;;;;;6.43;5.27;;;;;;;;;;5048417;28;20443;-66
2022/08/28 10:40:00;;;;;;;5.13;4.63;;;;;;;;;;5047401;28;20792;-65
2022/08/28 10:42:29;;;;;;;6.60;4.10;;;;;;;;;;5047898;28;20459;-66
2022/08/28 10:44:59;;;;;;;5.37;4.87;;;;;;;;;;5048963;28;20458;-66
2022/08/28 10:47:28;;;;;;;5.83;4.60;;;;;;;;;;5047364;28;20439;-66
2022/08/28 10:50:01;;;;;;;5.53;5.03;;;;;;;;;;5048586;28;20450;-65
2022/08/28 10:52:31;;;;;;;4.37;3.97;;;;;;;;;;5048845;28;20478;-66
2022/08/28 10:55:02;;;;;;;5.00;4.40;;;;;;;;;;5049197;28;20558;-66
2022/08/28 10:57:33;;;;;;;4.90;4.07;;;;;;;;;;5048784;28;20926;-66
2022/08/28 11:00:04;;;;;;;5.37;4.87;;;;;;;;;;5048809;28;20437;-66
2022/08/28 11:02:31;;;;;;;5.90;5.30;;;;;;;;;;5047600;28;20460;-65
2022/08/28 11:04:59;;;;;;;7.30;4.93;;;;;;;;;;5046052;28;20446;-65
2022/08/28 11:07:29;;;;;;;4.30;3.90;;;;;;;;;;5047665;28;20844;-66
2022/08/28 11:10:15;;;;;;;5.57;4.67;;;;;;;;;;5046882;28;20457;-65
2022/08/28 11:12:44;;;;;;;6.50;4.90;;;;;;;;;;5046945;28;20847;-66
2022/08/28 11:15:39;;;;;;;4.93;4.40;;;;;;;;;;5046584;28;20493;-66
2022/08/28 11:18:26;;;;;;;5.57;3.97;;;;;;;;;;5046569;28;20546;-66
2022/08/28 11:20:57;;;;;;;4.43;4.03;;;;;;;;;;5045503;28;20457;-66
2022/08/28 11:23:28;;;;;;;5.07;4.57;;;;;;;;;;5047149;28;20454;-65
2022/08/28 11:25:57;;;;;;;5.07;4.53;;;;;;;;;;5048303;28;20839;-66
2022/08/28 11:28:39;;;;;;;5.03;4.17;;;;;;;;;;5048615;28;20585;-65
2022/08/28 11:31:25;;;;;;;4.30;3.70;;;;;;;;;;5048007;28;20481;-66
2022/08/28 11:33:54;;;;;;;5.90;4.60;;;;;;;;;;5047565;28;20438;-66
2022/08/28 11:36:37;;;;;;;4.27;3.87;;;;;;;;;;5049037;28;20454;-65
2022/08/28 11:39:06;;;;;;;4.73;4.33;;;;;;;;;;5041741;28;20462;-66
2022/08/28 11:41:35;;;;;;;5.30;4.13;;;;;;;;;;5044918;28;20472;-66
2022/08/28 11:44:24;;;;;;;4.67;4.27;;;;;;;;;;5047700;28;20458;-66
2022/08/28 11:46:52;;;;;;;4.67;4.27;;;;;;;;;;5046933;28;20485;-66
2022/08/28 11:49:34;;;;;;;5.27;4.33;;;;;;;;;;5046360;28;20446;-66
2022/08/28 11:52:07;;;;;;;4.77;4.10;;;;;;;;;;5043348;28;20475;-65
2022/08/28 11:54:46;;;;;;;5.60;4.60;;;;;;;;;;5047207;28;20828;-66
2022/08/28 11:57:15;;;;;;;4.37;3.93;;;;;;;;;;5047726;28;20543;-66
2022/08/28 11:59:58;;;;;;;3.70;3.17;;;;;;;;;;5047411;28;20964;-65
2022/08/28 12:02:49;;;;;;;4.50;4.10;;;;;;;;;;5047976;28;20458;-66
2022/08/28 12:05:34;;;;;;;4.97;3.83;;;;;;;;;;5035442;28;20581;-66
2022/08/28 12:08:04;;;;;;;4.50;4.00;;;;;;;;;;5048380;28;20529;-66
2022/08/28 12:10:52;;;;;;;5.13;4.57;;;;;;;;;;5048266;28;20557;-66
2022/08/28 12:13:34;;;;;;;6.33;4.10;;;;;;;;;;5048298;28;20832;-66
2022/08/28 12:16:05;;;;;;;5.17;3.97;;;;;;;;;;5047316;28;21036;-66
2022/08/28 12:19:06;;;;;;;4.70;4.30;;;;;;;;;;5048617;28;20782;-66
2022/08/28 12:21:39;;;;;;;5.33;4.93;;;;;;;;;;5005797;28;20920;-65
2022/08/28 12:24:16;;;;;;;4.23;3.93;;;;;;;;;;5005366;28;20567;-66
2022/08/28 12:26:48;;;;;;;6.67;3.83;;;;;;;;;;5029256;28;20464;-66
2022/08/28 12:29:22;;;;;;;5.97;4.70;;;;;;;;;;5048072;28;20441;-67
2022/08/28 12:34:50;;;;;;;3.77;3.47;;;;;;;;;;5047961;28;20949;-66
2022/08/28 12:37:31;;;;;;;4.53;4.13;;;;;;;;;;5048481;28;21127;-67
2022/08/28 12:40:03;;;;;;;4.07;3.77;;;;;;;;;;5035985;28;20465;-67
2022/08/28 12:42:32;;;;;;;4.30;3.93;;;;;;;;;;5047607;28;20511;-68
2022/08/28 12:45:04;;;;;;;4.97;4.47;;;;;;;;;;5046226;28;21047;-68
2022/08/28 12:47:31;;;;;;;4.27;3.90;;;;;;;;;;5048019;28;20457;-66
2022/08/28 12:49:58;;;;;;;5.07;3.80;;;;;;;;;;5047319;28;20456;-67
2022/08/28 12:52:26;;;;;;;4.83;4.30;;;;;;;;;;5047284;28;20512;-68
2022/08/28 12:54:55;;;;;;;6.03;4.20;;;;;;;;;;5047004;28;20454;-68
2022/08/28 12:57:25;;;;;;;4.50;4.10;;;;;;;;;;5047174;28;20926;-68
2022/08/28 12:59:52;;;;;;;5.57;5.07;;;;;;;;;;5047112;28;21024;-67
2022/08/28 13:02:23;;;;;;;5.23;4.30;;;;;;;;;;5047122;28;20461;-68
2022/08/28 13:04:53;;;;;;;4.47;3.83;;;;;;;;;;5044963;28;20922;-67
2022/08/28 13:07:24;;;;;;;5.03;4.63;;;;;;;;;;5034296;28;20575;-67
2022/08/28 13:09:53;;;;;;;3.87;3.37;;;;;;;;;;5046707;28;20453;-67
2022/08/28 13:12:21;;;;;;;5.20;4.00;;;;;;;;;;5047187;28;20500;-69
2022/08/28 13:14:51;;;;;;;4.80;4.50;;;;;;;;;;5046317;28;20489;-69
2022/08/28 13:17:43;;;;;;;4.70;3.57;;;;;;;;;;5047167;28;20446;-69
2022/08/28 13:20:10;;;;;;;3.30;3.00;;;;;;;;;;5046695;28;20451;-69
2022/08/28 13:22:39;;;;;;;4.97;4.47;;;;;;;;;;5047431;28;20462;-70
2022/08/28 13:25:07;;;;;;;3.97;3.57;;;;;;;;;;5049190;28;20446;-69
2022/08/28 13:27:34;;;;;;;4.57;3.70;;;;;;;;;;5049534;28;20478;-68
2022/08/28 13:30:05;;;;;;;4.20;3.90;;;;;;;;;;5034851;28;20533;-68
2022/08/28 13:32:34;;;;;;;3.50;3.20;;;;;;;;;;5049225;28;20496;-68
2022/08/28 13:35:11;;;;;;;4.70;3.77;;;;;;;;;;5049560;28;20500;-68
2022/08/28 13:37:43;;;;;;;5.33;3.60;;;;;;;;;;5049584;28;20937;-68
2022/08/28 13:40:10;;;;;;;4.63;4.20;;;;;;;;;;5049514;28;20446;-68
2022/08/28 13:42:37;;;;;;;3.97;3.40;;;;;;;;;;5048972;28;20854;-68
2022/08/28 13:45:07;;;;;;;4.00;3.70;;;;;;;;;;5049453;28;20457;-68
2022/08/28 13:47:34;;;;;;;4.67;4.27;;;;;;;;;;5050113;28;20450;-68
2022/08/28 13:50:01;;;;;;;4.63;3.83;;;;;;;;;;5048971;28;20508;-67
2022/08/28 13:52:28;;;;;;;3.50;3.20;;;;;;;;;;5048991;28;20492;-68
2022/08/28 13:54:55;;;;;;;3.50;3.20;;;;;;;;;;5049241;28;20481;-67
2022/08/28 13:57:23;;;;;;;4.33;3.63;;;;;;;;;;5053377;28;20537;-68
2022/08/28 13:59:50;;;;;;;3.83;3.53;;;;;;;;;;5052650;28;20488;-68
2022/08/28 14:05:03;;;;;;;4.00;3.60;;;;;;;;;;5052639;28;20424;-68
2022/08/28 14:07:30;;;;;;;4.17;3.70;;;;;;;;;;5053393;28;20456;-68
2022/08/28 14:09:58;;;;;;;5.60;4.00;;;;;;;;;;5052551;28;20445;-67
2022/08/28 14:12:25;;;;;;;3.83;3.37;;;;;;;;;;5052898;28;20481;-67
2022/08/28 14:14:52;;;;;;;4.33;3.80;;;;;;;;;;5052362;28;20520;-68
2022/08/28 14:17:21;;;;;;;4.10;3.80;;;;;;;;;;5053255;28;20454;-68
2022/08/28 14:19:48;;;;;;;4.40;3.87;;;;;;;;;;5052572;28;20559;-67
2022/08/28 14:22:16;;;;;;;4.47;3.73;;;;;;;;;;5052547;28;21055;-68
2022/08/28 14:24:43;;;;;;;4.20;3.40;;;;;;;;;;5053159;28;20510;-68
2022/08/28 14:27:10;;;;;;;3.23;2.93;;;;;;;;;;5052349;28;20446;-68
2022/08/28 14:29:37;;;;;;;4.43;3.47;;;;;;;;;;5052443;28;20999;-68
2022/08/28 14:32:05;;;;;;;3.77;3.47;;;;;;;;;;5051466;28;20492;-68
2022/08/28 14:34:33;;;;;;;3.70;3.33;;;;;;;;;;5052638;28;20520;-67
2022/08/28 14:37:01;;;;;;;3.20;2.90;;;;;;;;;;5052399;28;20452;-67
2022/08/28 14:39:29;;;;;;;3.37;3.07;;;;;;;;;;5052700;28;20498;-68
2022/08/28 14:41:57;;;;;;;4.03;3.70;;;;;;;;;;5051435;28;20458;-68
2022/08/28 14:44:25;;;;;;;4.30;3.90;;;;;;;;;;5052316;28;20456;-68
2022/08/28 14:46:52;;;;;;;4.17;3.77;;;;;;;;;;5052063;28;20469;-68
2022/08/28 14:49:20;;;;;;;4.43;4.03;;;20.70;99.90;;;;;;5052220;28;20460;-68
2022/08/28 14:51:50;;;;;;;3.42;3.22;;;;;;;;;;5051539;28;20222;-67
2022/08/28 14:54:19;;;;;;;10.10;3.42;;;30.30;82.60;;;;;;5052249;28;20261;-68
2022/08/28 14:56:47;;;;;;;4.25;3.83;;;;;;;;;;5052410;28;20282;-68
2022/08/28 14:59:15;;;;;;;4.18;3.78;;;;;;;;;;5052123;28;20203;-68
2022/08/28 15:01:42;;;;;;;3.42;3.13;;;;;;;;;;5051750;28;20210;-68
2022/08/28 15:04:10;;;;;;;4.05;3.58;;;;;;;;;;5051505;28;20203;-67
2022/08/28 15:06:38;;;;;;;3.35;3.05;;;;;;;;;;5051310;28;20363;-67